createdAt,value
2023-05-02T15:01:08.108Z,51.96
2023-05-02T15:04:36.616Z,51.57
2023-05-02T15:08:08.803Z,51.41
2023-05-02T15:11:16.719Z,51.25
2023-05-02T15:14:20.198Z,51.15
2023-05-02T15:17:40.952Z,50.51
2023-05-02T15:21:39.253Z,49.95
2023-05-02T15:24:13.425Z,49.61
2023-05-02T15:27:15.508Z,48.47
2023-05-02T15:29:53.087Z,47.65
2023-05-02T15:33:22.316Z,46.82
2023-05-02T15:36:45.144Z,46.78
2023-05-02T15:40:17.421Z,46.19
2023-05-02T15:43:23.084Z,45.85
2023-05-02T15:46:17.606Z,45.89
2023-05-02T15:49:08.247Z,45.66
2023-05-02T15:52:08.736Z,45.92
2023-05-02T15:55:25.954Z,46.14
2023-05-02T15:58:50.010Z,46.35
2023-05-02T16:02:26.805Z,46.49
2023-05-02T16:06:06.975Z,46.72
2023-05-02T16:09:38.908Z,46.67
2023-05-02T16:12:30.514Z,46.71
2023-05-02T16:15:37.360Z,46.73
2023-05-02T16:19:30.833Z,46.73
2023-05-02T16:23:23.990Z,46.56
2023-05-02T16:26:57.660Z,46.46
2023-05-02T16:30:49.987Z,46.23
2023-05-02T16:34:38.013Z,45.98
2023-05-02T16:38:47.204Z,45.50
2023-05-02T16:42:25.464Z,45.15
2023-05-02T16:46:27.789Z,45.32
2023-05-02T16:49:24.751Z,45.08
2023-05-02T16:53:07.131Z,44.72
2023-05-02T16:56:20.825Z,44.69
2023-05-02T16:59:40.180Z,44.93
2023-05-02T17:03:16.235Z,45.66
2023-05-02T17:06:23.171Z,45.40
2023-05-02T17:09:38.432Z,44.95
2023-05-02T17:12:37.490Z,44.62
2023-05-02T17:16:10.484Z,43.90
2023-05-02T17:19:41.989Z,43.86
2023-05-02T17:22:56.548Z,43.57
2023-05-02T17:25:51.612Z,43.21
2023-05-02T17:28:58.245Z,43.08
2023-05-02T17:32:06.191Z,43.19
2023-05-02T17:35:50.140Z,43.15
2023-05-02T17:38:39.375Z,42.91
2023-05-02T17:41:56.421Z,42.58
2023-05-02T17:45:36.414Z,42.55
2023-05-02T17:48:40.595Z,42.40
2023-05-02T17:52:19.148Z,42.09
2023-05-02T17:55:27.243Z,41.97
2023-05-02T17:58:21.779Z,42.38
2023-05-02T18:01:02.818Z,42.38
2023-05-02T18:03:40.299Z,42.51
2023-05-02T18:07:23.996Z,42.54
2023-05-02T18:10:28.697Z,42.54
2023-05-02T18:13:39.767Z,42.75
2023-05-02T18:16:34.200Z,43.05
2023-05-02T18:19:23.744Z,43.39
2023-05-02T18:22:11.987Z,43.57
2023-05-02T18:25:20.946Z,43.87
2023-05-02T18:28:24.355Z,44.20
2023-05-02T18:31:43.216Z,44.46
2023-05-02T18:35:15.693Z,44.65
2023-05-02T18:38:14.113Z,44.96
2023-05-02T18:41:05.521Z,45.71
2023-05-02T18:44:44.726Z,46.09
2023-05-02T18:47:38.242Z,46.61
2023-05-02T18:50:26.247Z,47.17
2023-05-02T18:53:12.320Z,47.68
2023-05-02T18:55:58.556Z,48.17
2023-05-02T18:59:15.533Z,48.30
2023-05-02T19:02:24.954Z,48.64
2023-05-02T19:05:15.820Z,48.96
2023-05-02T19:08:44.083Z,49.22
2023-05-02T19:11:45.041Z,49.35
2023-05-02T19:14:54.975Z,49.69
2023-05-02T19:17:27.884Z,49.88
2023-05-02T19:20:21.570Z,50.14
2023-05-02T19:24:02.002Z,49.95
2023-05-02T19:27:24.034Z,50.55
2023-05-02T19:30:41.022Z,50.89
2023-05-02T19:34:04.283Z,51.03
2023-05-02T19:37:46.708Z,51.09
2023-05-02T19:40:57.505Z,51.06
2023-05-02T19:44:02.571Z,50.87
2023-05-02T19:47:44.036Z,50.89
2023-05-02T19:50:35.739Z,51.05
2023-05-02T19:53:41.626Z,51.22
2023-05-02T19:56:55.580Z,51.42
2023-05-02T20:00:34.436Z,51.51
2023-05-02T20:04:00.357Z,51.91
2023-05-02T20:06:45.085Z,52.08
2023-05-02T20:10:34.446Z,52.05
2023-05-02T20:13:54.612Z,52.20
2023-05-02T20:17:14.125Z,52.71
2023-05-02T20:20:11.620Z,53.01
2023-05-02T20:23:17.018Z,53.44
2023-05-02T20:26:21.107Z,53.62
2023-05-02T20:29:36.037Z,53.41
2023-05-02T20:33:14.759Z,53.90
2023-05-02T20:36:45.490Z,54.11
2023-05-02T20:40:39.502Z,54.13
2023-05-02T20:43:32.796Z,54.04
2023-05-02T20:47:42.496Z,53.90
2023-05-02T20:50:43.440Z,54.04
2023-05-02T20:53:57.257Z,54.01
2023-05-02T20:57:06.208Z,53.94
2023-05-02T21:00:56.042Z,54.17
2023-05-02T21:04:28.348Z,54.14
2023-05-02T21:07:35.917Z,54.09
2023-05-02T21:11:13.450Z,54.10
2023-05-02T21:14:35.970Z,54.21
2023-05-02T21:21:14.092Z,53.98
2023-05-02T21:24:07.936Z,54.02
2023-05-02T21:27:09.246Z,53.88
2023-05-02T21:30:28.802Z,54.11
2023-05-02T21:33:52.630Z,53.91
2023-05-02T21:37:01.269Z,53.85
2023-05-02T21:40:46.994Z,53.93
2023-05-02T21:43:52.702Z,53.97
2023-05-02T21:47:21.566Z,53.95
2023-05-02T21:51:14.176Z,53.91
2023-05-02T21:54:54.445Z,53.74
2023-05-02T21:58:43.636Z,53.65
2023-05-02T22:02:09.354Z,53.68
2023-05-02T22:05:13.993Z,53.94
2023-05-02T22:08:46.118Z,53.90
2023-05-02T22:12:26.891Z,53.89
2023-05-02T22:15:51.234Z,53.85
2023-05-02T22:19:28.051Z,53.58
2023-05-02T22:22:34.170Z,53.46
2023-05-02T22:25:50.503Z,53.52
2023-05-02T22:28:36.081Z,53.62
2023-05-02T22:31:50.161Z,53.73
2023-05-02T22:35:39.818Z,53.79
2023-05-02T22:38:37.086Z,53.82
2023-05-02T22:42:01.742Z,53.83
2023-05-02T22:45:06.719Z,53.88
2023-05-02T22:48:59.140Z,53.89
2023-05-02T22:52:38.627Z,53.91
2023-05-02T22:55:35.217Z,53.99
2023-05-02T22:58:23.751Z,54.07
2023-05-02T23:01:31.914Z,54.07
2023-05-02T23:04:59.872Z,54.11
2023-05-02T23:08:10.669Z,54.13
2023-05-02T23:11:18.265Z,54.23
2023-05-02T23:14:30.362Z,54.46
2023-05-02T23:17:29.945Z,54.63
2023-05-02T23:20:30.456Z,54.80
2023-05-02T23:23:42.311Z,55.04
2023-05-02T23:26:28.919Z,54.97
2023-05-02T23:29:44.385Z,54.89
2023-05-02T23:33:04.202Z,54.91
2023-05-02T23:36:09.482Z,55.00
2023-05-02T23:39:35.787Z,55.18
2023-05-02T23:42:40.141Z,55.25
2023-05-02T23:46:15.793Z,55.40
2023-05-02T23:49:54.515Z,55.56
2023-05-02T23:53:09.178Z,55.79
2023-05-02T23:56:03.506Z,55.90
2023-05-02T23:59:46.035Z,56.00
